Zuiderdam — PBIG — position and weather

sailwx.info

Track history (hours):
 
Tides and Currents Weather Stations Pressure Air Temp Water Temp Dewpoint Dewpoint Depression Visibility Wind Speed Wind Dir Waves Ship Positions

Zuiderdam (Netherlands)

Operator: Holland America Line

Last reported at 2018-May-24 06:23 UTC. Time now 2018-May-25 10:41 UTC.
Position N 53°21' W 006°13'.

Type: Passenger vessel. MMSI: 245304000.

Date/timePositionNaut miles runAvg speedWind from/ knotsBaromVisibWave heightAir tempDewpointWater temp
2018-May-24 06:23N 53°21' W 006°13'0 0.3
2018-May-24 06:00N 53°21' W 006°13'1 1.6
2018-May-24 05:28N 53°21' W 006°12'5 9.9
2018-May-24 04:59N 53°20' W 006°03'510.8
2018-May-24 04:30N 53°23' W 005°56'611.4
2018-May-24 04:00N 53°26' W 005°47'611.1
2018-May-24 03:27N 53°29' W 005°39'611.1
2018-May-24 02:56N 53°34' W 005°35'511.4
2018-May-24 02:29N 53°39' W 005°32'511.5
2018-May-24 02:00N 53°44' W 005°28'611.6
2018-May-24 01:30N 53°49' W 005°24'611.7
2018-May-24 01:00N 53°55' W 005°21'612.0
2018-May-24 00:30N 54°00' W 005°17'611.5
2018-May-24 00:00N 54°06' W 005°13'612.3
2018-May-23 23:30N 54°11' W 005°09'612.5
2018-May-23 23:00N 54°17' W 005°05'713.7
2018-May-23 22:30N 54°23' W 005°01'611.7
2018-May-23 22:00N 54°29' W 005°04'612.0
2018-May-23 21:30N 54°33' W 005°11'612.5
2018-May-23 21:00N 54°38' W 005°18'612.5
2018-May-23 20:30N 54°42' W 005°27'611.5
2018-May-23 20:00N 54°42' W 005°37'611.3
2018-May-23 19:30N 54°42' W 005°46'610.8
2018-May-23 19:00N 54°38' W 005°53'1 1.6
2018-May-23 18:30N 54°37' W 005°54'0 0.0
2018-May-23 18:00N 54°37' W 005°54'0 0.0
2018-May-23 17:27N 54°37' W 005°54'0 0.0
2018-May-23 17:00N 54°37' W 005°54'0 0.0
2018-May-23 16:30N 54°37' W 005°54'0 0.0
2018-May-23 16:00N 54°37' W 005°54'0 0.0
2018-May-23 15:30N 54°37' W 005°54'0 0.0
2018-May-23 15:00N 54°37' W 005°54'0 0.0
2018-May-23 14:30N 54°37' W 005°54'0 0.0
2018-May-23 13:57N 54°37' W 005°54'0 0.0
2018-May-23 13:30N 54°37' W 005°54'0 0.0
2018-May-23 13:00N 54°37' W 005°54'0 0.0
2018-May-23 12:30N 54°37' W 005°54'0 0.0
2018-May-23 12:00N 54°37' W 005°54'0 0.0
2018-May-23 11:30N 54°37' W 005°54'0 0.0
2018-May-23 11:00N 54°37' W 005°54'0 0.0
2018-May-23 10:30N 54°37' W 005°54'0 0.0
2018-May-23 10:00N 54°37' W 005°54'0 0.0
2018-May-23 09:30N 54°37' W 005°54'0 0.0
2018-May-23 09:00N 54°37' W 005°54'0 0.1
2018-May-23 08:27N 54°37' W 005°54'1 1.3
2018-May-23 07:56N 54°38' W 005°53'4 9.0
2018-May-23 07:30N 54°41' W 005°49'611.9
2018-May-23 07:01N 54°43' W 005°40'816.4
2018-May-23 06:31N 54°52' W 005°38'815.6
2018-May-23 06:01N 54°59' W 005°40'2136.1
2018-May-23 06:00N 55°00' W 005°36'1316.0 060 / 111026.010.8 10.4 8.510.5
2018-May-23 05:12N 55°09' W 005°51'315.3
2018-May-23 05:01N 55°12' W 005°54'6333.8
2018-May-23 05:00N 55°06' W 005°54'1326.5 090 / 221026.010.8 9.5 7.610.8
2018-May-23 04:30N 55°18' W 006°03'815.5
2018-May-23 04:01N 55°22' W 006°14'4244.5
2018-May-23 04:00N 55°18' W 006°12'1123.1 140 / 131026.010.8 9.5 7.611.0
2018-May-23 03:31N 55°27' W 006°23'815.7
2018-May-23 03:00N 55°34' W 006°30'917.4
2018-May-23 02:31N 55°42' W 006°38'1020.2
2018-May-23 02:01N 55°50' W 006°46'1019.2
2018-May-23 01:29N 55°59' W 006°55'43322.2
2018-May-22 06:00N 57°42' E 005°54'1919.1 100 / 161026.027.0 10.8 5.110.8
2018-May-22 05:00N 58°00' E 005°42'1919.1 060 / 201027.010.8 9.7 5.510.3
2018-May-22 04:00N 58°18' E 005°30'341469.0 070 / 141027.010.8 7.6 4.710.5
2018-May-22 03:16N 58°30' W 005°20'3301210.0
2018-May-22 03:00N 58°30' E 005°12'28085.8 070 / 101027.010.8 7.6 4.010.4
2018-May-21 23:44N 58°43' W 003°44'717.8
2018-May-21 23:20N 58°43' W 003°31'720.4
2018-May-21 23:00N 58°44' W 003°18'1121.0
2018-May-21 22:30N 58°43' W 002°58'1121.0
2018-May-21 22:00N 58°42' W 002°37'8320.6
2018-May-21 18:00N 58°30' E 000°00'1716.8 220 / 151017.0 0.0 8.9 8.111.6
2018-May-21 17:00N 58°24' E 000°30'843.0 190 / 221017.0 0.0 9.2 8.011.8
2018-May-21 16:48N 58°29' E 000°43'618.5
2018-May-21 16:30N 58°27' E 000°53'714.7
2018-May-21 16:00N 58°24' E 001°06'449.1 180 / 161018.010.8 11.4 9.011.8
2018-May-21 15:55N 58°25' E 001°14'818.7
2018-May-21 15:30N 58°23' E 001°28'917.3
2018-May-21 15:00N 58°18' E 001°42'31263.9 170 / 201018.010.8 12.5 9.111.8
2018-May-21 14:59N 58°20' E 001°45'1019.0
2018-May-21 14:29N 58°18' E 002°04'1019.8
2018-May-21 14:00N 58°12' E 002°18'4223.0 170 / 221019.010.8 12.6 8.911.6
2018-May-21 13:58N 58°16' E 002°21'918.9
2018-May-21 13:29N 58°14' E 002°38'918.9
2018-May-21 13:00N 58°12' E 002°56'919.0
2018-May-21 12:30N 58°10' E 003°13'918.8
2018-May-21 12:00N 58°08' E 003°30'1019.1
2018-May-21 11:30N 58°06' E 003°48'917.5
2018-May-21 11:00N 58°00' E 004°00'51409.8 140 / 191021.010.8 15.913.011.9
2018-May-21 10:59N 58°04' E 004°06'714.7
2018-May-21 10:30N 58°03' E 004°19'1019.2
2018-May-21 09:59N 58°01' E 004°38'1119.0
2018-May-21 09:26N 57°59' E 004°57'819.3
2018-May-21 09:00N 57°57' E 005°13'1219.4
2018-May-21 08:24N 57°55' E 005°34'819.3
2018-May-21 07:59N 57°53' E 005°49'919.4
2018-May-21 07:30N 57°52' E 006°06'1119.7
2018-May-21 06:58N 57°49' E 006°26'919.5
2018-May-21 06:30N 57°48' E 006°42'1019.8
2018-May-21 06:00N 57°46' E 007°00'5361.4
2018-May-21 06:00N 57°42' E 007°06'815.5 120 / 81026.010.8 14.311.413.0
2018-May-21 05:30N 57°45' E 007°19'1019.8
2018-May-21 05:00N 57°45' E 007°38'333213.4
2018-May-21 05:00N 57°42' E 006°36'4388.3 150 / 71026.010.8 13.010.013.3
2018-May-21 04:30N 57°45' E 007°56'917.4
2018-May-21 04:00N 57°42' E 008°12'734.2 190 / 161026.010.8 13.911.213.3
2018-May-21 03:47N 57°46' E 008°23'619.9
2018-May-21 03:30N 57°46' E 008°34'54106.8
2018-May-21 03:00N 57°42' E 006°54'69219.7 170 / 201026.010.8 13.610.212.5
2018-May-21 02:41N 57°47' E 009°03'319.1
2018-May-21 02:30N 57°48' E 009°09'918.8
2018-May-21 02:01N 57°48' E 009°27'919.0
2018-May-21 01:31N 57°49' E 009°45'1019.4
2018-May-21 01:01N 57°49' E 010°03'1019.5
2018-May-21 00:31N 57°50' E 010°21'1019.5
2018-May-21 00:00N 57°50' E 010°39'918.6
2018-May-20 23:31N 57°45' E 010°54'1019.6
2018-May-20 23:01N 57°38' E 011°07'1019.2
2018-May-20 22:31N 57°32' E 011°20'918.9
2018-May-20 22:01N 57°23' E 011°28'1019.1
2018-May-20 21:31N 57°14' E 011°35'918.6
2018-May-20 21:01N 57°06' E 011°40'918.7
2018-May-20 20:30N 56°57' E 011°46'1019.1
2018-May-20 20:00N 56°48' E 011°52'918.9
2018-May-20 19:31N 56°39' E 011°57'918.5
2018-May-20 19:01N 56°30' E 012°00'6340.7
2018-May-20 19:00N 56°24' E 012°00'4 8.5 090 / 61027.010.8 18.412.615.5
2018-May-20 18:31N 56°21' E 012°04'917.9
2018-May-20 18:00N 56°14' E 012°16'918.9
2018-May-20 17:30N 56°09' E 012°29'918.7
2018-May-20 17:01N 56°02' E 012°40'917.5
2018-May-20 16:30N 55°53' E 012°44'815.6
2018-May-20 16:00N 55°46' E 012°42'4 8.4
2018-May-20 15:31N 55°42' E 012°37'0 0.3
2018-May-20 14:59N 55°43' E 012°36'0 0.0
2018-May-20 14:29N 55°43' E 012°36'0 0.0
2018-May-20 13:59N 55°43' E 012°36'0 0.0
2018-May-20 13:29N 55°43' E 012°36'0 0.0
2018-May-20 12:59N 55°43' E 012°36'0 0.0
2018-May-20 12:29N 55°43' E 012°36'0 0.0
2018-May-20 11:59N 55°43' E 012°36'0 0.0
2018-May-20 11:29N 55°43' E 012°36'0 0.0
2018-May-20 10:59N 55°43' E 012°36'0 0.0
2018-May-20 10:29N 55°43' E 012°36'0 0.0
2018-May-20 09:59N 55°43' E 012°36'0 0.0
2018-May-20 09:29N 55°43' E 012°36'0 0.0
2018-May-20 08:59N 55°43' E 012°36'0 0.0
2018-May-20 08:29N 55°43' E 012°36'0 0.0
2018-May-20 07:59N 55°43' E 012°36'0 0.0
2018-May-20 07:29N 55°43' E 012°36'0 0.0
2018-May-20 06:59N 55°43' E 012°36'0 0.0
2018-May-20 06:29N 55°43' E 012°36'0 0.0
2018-May-20 05:59N 55°43' E 012°36'0 0.0
2018-May-20 05:29N 55°43' E 012°36'0 0.0
2018-May-20 04:59N 55°43' E 012°36'0 0.2
2018-May-20 04:30N 55°43' E 012°36'3 5.5
2018-May-20 04:00N 55°44' E 012°40'611.8
2018-May-20 03:30N 55°50' E 012°42'816.0
2018-May-20 03:01N 55°58' E 012°41'815.1
2018-May-20 02:30N 56°05' E 012°35'714.5
2018-May-20 02:01N 56°09' E 012°25'814.8
2018-May-20 01:30N 56°12' E 012°12'714.7
2018-May-20 01:01N 56°10' E 011°59'815.0
2018-May-20 00:31N 56°07' E 011°47'714.8
2018-May-20 00:01N 56°07' E 011°33'714.9
2018-May-19 23:30N 56°07' E 011°20'812.8
2018-May-19 22:54N 56°04' E 011°07'3015.7
2018-May-19 21:00N 55°36' E 010°48'913.7 290 / 121025.010.8 15.8 9.915.1
2018-May-19 20:19N 55°28' E 010°56'515.6
2018-May-19 20:00N 55°24' E 011°01'6391.7
2018-May-19 20:00N 55°18' E 011°00'3 6.3 170 / 41025.010.8 16.6 4.915.1
2018-May-19 19:29N 55°16' E 011°05'714.0
2018-May-19 19:01N 55°10' E 011°04'4245.4
2018-May-19 19:00N 55°06' E 011°00'4 8.7 060 / 61024.010.8 18.3 9.114.3
2018-May-19 18:30N 55°02' E 011°02'713.7
2018-May-19 18:01N 54°56' E 010°56'2142.8
2018-May-19 18:00N 54°54' E 010°54'5 9.8 040 / 61024.010.8 20.3 7.313.5
2018-May-19 17:30N 54°50' E 010°51'714.7
2018-May-19 17:01N 54°43' E 010°47'3165.3
2018-May-19 17:00N 54°42' E 010°42'511.1 070 / 31024.010.8 20.7 5.515.4
2018-May-19 16:31N 54°37' E 010°41'714.0
2018-May-19 16:01N 54°33' E 010°31'613.0
2018-May-19 15:30N 54°30' E 010°21'611.5
2018-May-19 15:00N 54°26' E 010°14'510.7
2018-May-19 14:31N 54°21' E 010°10'2 1.0
2018-May-19 12:57N 54°20' E 010°09'0 0.0
2018-May-19 11:42N 54°20' E 010°09'0 0.0
2018-May-19 11:30N 54°20' E 010°09'0 0.0
2018-May-19 09:35N 54°20' E 010°09'0 0.0
2018-May-19 09:17N 54°20' E 010°09'7 1.5
2018-May-19 04:17N 54°26' E 010°14'411.3
2018-May-19 03:54N 54°30' E 010°18'4 9.9
2018-May-19 03:31N 54°32' E 010°24'510.1
2018-May-19 03:00N 54°34' E 010°32'612.2
2018-May-19 02:31N 54°36' E 010°42'611.6
2018-May-19 02:01N 54°36' E 010°52'611.6
2018-May-19 01:30N 54°36' E 011°02'611.8
2018-May-19 01:01N 54°36' E 011°12'611.6
2018-May-19 00:31N 54°33' E 011°21'611.9
2018-May-19 00:00N 54°30' E 011°30'510.9
2018-May-18 23:31N 54°28' E 011°39'510.6
2018-May-18 23:00N 54°26' E 011°47'610.9
2018-May-18 22:30N 54°22' E 011°54'611.9
2018-May-18 22:00N 54°18' E 012°02'10 8.9
2018-May-18 20:55N 54°09' E 012°07'0 0.2
2018-May-18 20:14N 54°09' E 012°07'0 0.0
2018-May-18 19:50N 54°09' E 012°07'3 1.6
2018-May-18 18:00N 54°06' E 012°06'3 2.0 290 / 61019.010.8 15.810.312.5
2018-May-18 16:29N 54°09' E 012°07'0 0.0
2018-May-18 11:38N 54°09' E 012°07'0 0.0
2018-May-18 11:29N 54°09' E 012°07'0 0.0
2018-May-18 06:56N 54°09' E 012°07'0 0.0
2018-May-18 06:05N 54°09' E 012°07'1 0.2
2018-May-18 03:02N 54°10' E 012°06'0 0.4
2018-May-18 03:00N 54°10' E 012°06'2 4.9
2018-May-18 02:30N 54°12' E 012°05'5 9.9
2018-May-18 02:00N 54°16' E 012°01'5 9.1
2018-May-18 01:30N 54°20' E 011°58'611.4
2018-May-18 01:00N 54°25' E 012°02'611.5
2018-May-18 00:30N 54°27' E 012°12'612.2
2018-May-18 00:00N 54°33' E 012°14'713.6
2018-May-17 23:30N 54°38' E 012°22'714.3
2018-May-17 22:59N 54°42' E 012°32'713.8
2018-May-17 22:28N 54°47' E 012°42'613.1
2018-May-17 22:00N 54°49' E 012°52'1118.6
2018-May-17 22:00N 54°48' E 012°54'813.5 290 / 201014.0 5.4 13.411.613.0
2018-May-17 21:26N 54°52' E 013°05'817.9
2018-May-17 21:00N 54°54' E 013°18'112.3 280 / 91015.0 5.4 12.811.212.7
2018-May-17 20:54N 54°55' E 013°17'614.3
2018-May-17 20:29N 54°57' E 013°27'612.1
2018-May-17 20:00N 54°54' E 013°36'1818.6 160 / 131014.0 5.4 12.811.011.7
2018-May-17 19:03N 55°04' E 014°01'014.3
2018-May-17 19:00N 55°04' E 014°02'714.3
2018-May-17 18:30N 55°10' E 014°10'3 5.1
2018-May-17 18:00N 55°12' E 014°12'669.3 080 / 71015.010.8 12.3 5.211.8
2018-May-17 17:54N 55°16' E 014°20'614.5
2018-May-17 17:30N 55°21' E 014°26'714.8
2018-May-17 17:00N 55°27' E 014°34'714.4
2018-May-17 16:30N 55°30' E 014°45'714.4
2018-May-17 16:00N 55°34' E 014°56'714.4
2018-May-17 15:30N 55°38' E 015°07'714.0
2018-May-17 15:00N 55°41' E 015°19'714.4
2018-May-17 14:30N 55°43' E 015°31'714.4
2018-May-17 14:00N 55°47' E 015°42'714.5
2018-May-17 13:30N 55°50' E 015°53'714.2
2018-May-17 13:00N 55°54' E 016°03'714.3
2018-May-17 12:30N 55°58' E 016°14'714.6
2018-May-17 12:00N 56°02' E 016°25'714.7
2018-May-17 11:30N 56°06' E 016°36'816.0
2018-May-17 11:00N 56°11' E 016°47'816.7
2018-May-17 10:30N 56°19' E 016°52'816.7
2018-May-17 10:00N 56°27' E 016°58'16216.8
2018-May-17 00:20N 58°52' E 019°14'617.1
2018-May-17 00:00N 58°57' E 019°20'917.4
2018-May-16 23:30N 59°04' E 019°29'917.4
2018-May-16 23:00N 59°11' E 019°37'917.3
2018-May-16 22:30N 59°19' E 019°45'5 9.8
2018-May-16 22:00N 59°24' E 019°48'4349.6 310 / 81014.0 5.4 14.4 8.8 8.9
2018-May-16 21:59N 59°27' E 019°54'816.6
2018-May-16 21:30N 59°35' E 019°58'816.5
2018-May-16 21:00N 59°41' E 019°49'154.2
2018-May-16 21:00N 59°42' E 019°48'815.4 070 / 61013.0 5.4 14.4 8.8 8.9
2018-May-16 20:28N 59°48' E 019°37'716.0
2018-May-16 20:01N 59°46' E 019°23'5307.6
2018-May-16 20:00N 59°42' E 019°18'4 8.4 320 / 141014.0 5.4 14.4 7.410.6
2018-May-16 19:30N 59°44' E 019°11'1122.3
2018-May-16 19:00N 59°36' E 018°54'4172.3 070 / 41014.0 5.4 21.0 7.611.6
2018-May-16 18:58N 59°40' E 018°57'510.5
2018-May-16 18:30N 59°37' E 018°49'612.1
2018-May-16 18:00N 59°34' E 018°39'6855.1
2018-May-16 18:00N 59°30' E 018°30'1 2.4 160 / 51013.0 5.4 28.3 9.112.0
2018-May-16 17:30N 59°31' E 018°31'510.8
2018-May-16 17:01N 59°27' E 018°25'4 8.4
2018-May-16 16:30N 59°23' E 018°27'4 7.1
2018-May-16 16:00N 59°22' E 018°20'510.8
2018-May-16 15:30N 59°20' E 018°10'1 2.7
2018-May-16 14:57N 59°21' E 018°07'0 0.0
2018-May-16 13:57N 59°21' E 018°07'0 0.0
2018-May-16 13:27N 59°21' E 018°07'0 0.0
2018-May-16 12:58N 59°21' E 018°07'0 0.0
2018-May-16 12:30N 59°21' E 018°07'0 0.0
2018-May-16 11:57N 59°21' E 018°07'0 0.0
2018-May-16 11:27N 59°21' E 018°07'0 0.0
2018-May-16 11:00N 59°21' E 018°07'0 0.0
2018-May-16 10:27N 59°21' E 018°07'0 0.0
2018-May-16 09:57N 59°21' E 018°07'0 0.0
2018-May-16 09:27N 59°21' E 018°07'0 0.0
2018-May-16 08:45N 59°21' E 018°07'0 0.0
2018-May-16 08:27N 59°21' E 018°07'0 0.0
2018-May-16 07:57N 59°21' E 018°07'0 0.0
2018-May-16 07:15N 59°21' E 018°07'0 0.0
2018-May-16 06:57N 59°21' E 018°07'0 0.0
2018-May-16 06:27N 59°21' E 018°07'0 0.0
2018-May-16 06:00N 59°21' E 018°07'0 0.0
2018-May-16 05:30N 59°21' E 018°07'1 1.6
2018-May-16 05:00N 59°21' E 018°09'4 8.5
2018-May-16 04:30N 59°22' E 018°16'5 9.9
2018-May-16 04:01N 59°21' E 018°26'5 9.7
2018-May-16 03:30N 59°26' E 018°23'611.3
2018-May-16 03:00N 59°31' E 018°30'5 9.8
2018-May-16 02:30N 59°34' E 018°38'611.7
2018-May-16 02:00N 59°36' E 018°48'510.5
2018-May-16 01:30N 59°40' E 018°56'714.3
2018-May-16 01:00N 59°44' E 019°08'816.2
2018-May-16 00:30N 59°46' E 019°23'714.5
2018-May-16 00:00N 59°49' E 019°36'915.9
2018-May-15 23:26N 59°45' E 019°52'816.9
2018-May-15 22:56N 59°39' E 020°04'2217.0
2018-May-15 21:37N 59°35' E 020°47'217.7
2018-May-15 21:30N 59°34' E 020°51'917.7
2018-May-15 21:00N 59°33' E 021°08'917.7
2018-May-15 20:30N 59°31' E 021°25'917.9
2018-May-15 20:00N 59°29' E 021°43'5349.2
2018-May-15 20:00N 59°24' E 021°42'1019.8 350 / 271015.0 5.4 15.6 7.9 9.9
2018-May-15 19:30N 59°28' E 021°59'714.2
2018-May-15 19:00N 59°24' E 022°12'1125.2 350 / 221015.0 5.4 15.6 7.1 9.9
2018-May-15 18:33N 59°31' E 022°29'117.3
2018-May-15 18:30N 59°31' E 022°31'917.5
2018-May-15 18:00N 59°34' E 022°47'4282.1
2018-May-15 18:00N 59°30' E 022°42'1225.8 350 / 171016.0 5.4 19.6 7.010.3
2018-May-15 17:30N 59°36' E 023°04'917.9
2018-May-15 17:00N 59°38' E 023°21'3188.9
2018-May-15 17:00N 59°36' E 023°18'1122.4 010 / 81016.0 5.4 19.6 8.610.3
2018-May-15 16:30N 59°41' E 023°38'917.7
2018-May-15 16:00N 59°43' E 023°54'917.6
2018-May-15 15:30N 59°46' E 024°11'918.8
2018-May-15 15:01N 59°48' E 024°29'917.7
2018-May-15 14:30N 59°54' E 024°42'917.7
2018-May-15 14:00N 60°00' E 024°55'713.9
2018-May-15 13:31N 60°07' E 024°54'2 4.4
2018-May-15 13:00N 60°09' E 024°55'0 0.0
2018-May-15 12:30N 60°09' E 024°55'0 0.0
2018-May-15 12:00N 60°09' E 024°55'0 0.0
2018-May-15 11:30N 60°09' E 024°55'0 0.0
2018-May-15 11:00N 60°09' E 024°55'0 0.0
2018-May-15 10:30N 60°09' E 024°55'0 0.0
2018-May-15 10:00N 60°09' E 024°55'0 0.0
2018-May-15 09:30N 60°09' E 024°55'0 0.0
2018-May-15 09:00N 60°09' E 024°55'0 0.0
2018-May-15 08:30N 60°09' E 024°55'0 0.0
2018-May-15 08:00N 60°09' E 024°55'0 0.0
2018-May-15 07:30N 60°09' E 024°55'0 0.0
2018-May-15 07:00N 60°09' E 024°55'0 0.0
2018-May-15 06:27N 60°09' E 024°55'0 0.0
2018-May-15 06:00N 60°09' E 024°55'0 0.0
2018-May-15 05:30N 60°09' E 024°55'0 0.0
2018-May-15 05:00N 60°09' E 024°55'0 0.0
2018-May-15 04:30N 60°09' E 024°55'0 0.0
2018-May-15 04:00N 60°09' E 024°55'0 0.0
2018-May-15 03:30N 60°09' E 024°55'0 0.8
2018-May-15 03:01N 60°09' E 024°55'4 7.2
2018-May-15 02:31N 60°05' E 024°54'714.8
2018-May-15 02:00N 59°59' E 025°00'918.9
2018-May-15 01:30N 59°55' E 025°17'1019.1
2018-May-15 01:00N 59°54' E 025°36'1019.2
2018-May-15 00:30N 59°57' E 025°55'1119.4
2018-May-14 23:57N 59°59' E 026°16'919.5
2018-May-14 23:30N 60°01' E 026°33'1019.3
2018-May-14 22:58N 60°00' E 026°53'918.3
2018-May-14 22:30N 60°02' E 027°10'1019.4
2018-May-14 22:00N 60°07' E 027°27'1019.4
2018-May-14 21:30N 60°12' E 027°43'1019.0
2018-May-14 21:00N 60°10' E 028°02'4310.6
2018-May-14 21:00N 60°06' E 028°00'1020.4 300 / 31021.0 5.4 20.5 8.810.1
2018-May-14 20:30N 60°07' E 028°20'918.5
2018-May-14 20:00N 60°03' E 028°37'4269.8
2018-May-14 20:00N 60°00' E 028°42'1118.9 030 / 71021.0 5.4 22.5 4.010.1
2018-May-14 19:23N 60°02' E 029°04'718.1
2018-May-14 19:00N 60°00' E 029°18'287.6 150 / 21021.0 5.4 22.0 7.410.1
2018-May-14 18:58N 60°02' E 029°21'4 7.8
2018-May-14 18:30N 60°02' E 029°29'1020.0
2018-May-14 18:00N 59°54' E 029°42'6723.1 080 / 71021.0 5.4 27.0 9.812.6
2018-May-14 17:59N 59°60' E 029°41'4 8.0
2018-May-14 17:30N 59°58' E 029°48'510.5
2018-May-14 17:00N 59°56' E 029°57'2190.7
2018-May-14 17:00N 59°54' E 029°54'714.3 080 / 121021.0 5.4 29.810.412.8
2018-May-14 16:30N 59°57' E 030°07'2 4.7
2018-May-14 16:00N 59°57' E 030°12'0 0.0
2018-May-14 15:30N 59°57' E 030°12'0 0.0
2018-May-14 15:00N 59°57' E 030°12'0 0.0
2018-May-14 14:28N 59°57' E 030°12'0 0.0
2018-May-14 14:00N 59°57' E 030°12'0 0.0
2018-May-14 13:28N 59°57' E 030°12'0 0.0
2018-May-14 12:58N 59°57' E 030°12'0 0.0
2018-May-14 12:28N 59°57' E 030°12'0 0.0
2018-May-14 11:54N 59°57' E 030°12'0 0.0
2018-May-14 11:28N 59°57' E 030°12'0 0.0
2018-May-14 10:58N 59°57' E 030°12'0 0.0
2018-May-14 10:30N 59°57' E 030°12'0 0.0
2018-May-14 10:00N 59°57' E 030°12'0 0.0
2018-May-14 09:30N 59°57' E 030°12'0 0.0
2018-May-14 08:58N 59°57' E 030°12'0 0.0
2018-May-14 08:30N 59°57' E 030°12'0 0.0
2018-May-14 08:00N 59°57' E 030°12'0 0.0
2018-May-14 07:30N 59°57' E 030°12'0 0.0
2018-May-14 07:00N 59°57' E 030°12'0 0.0
2018-May-14 06:28N 59°57' E 030°12'  
Track history (hours):
 
Tides and Currents Weather Stations Pressure Air Temp Water Temp Dewpoint Dewpoint Depression Visibility Wind Speed Wind Dir Waves Ship Positions

Zuiderdam (Netherlands)

Operator: Holland America Line

Last reported at 2018-May-24 06:23 UTC. Time now 2018-May-25 10:41 UTC.
Position N 53°21' W 006°13'.

Type: Passenger vessel. MMSI: 245304000.

Date/timePositionNaut miles runAvg speedWind from/ knotsBaromVisibWave heightAir tempDewpointWater temp
2018-May-24 06:23N 53°21' W 006°13'0 0.3
2018-May-24 06:00N 53°21' W 006°13'1 1.6
2018-May-24 05:28N 53°21' W 006°12'5 9.9
2018-May-24 04:59N 53°20' W 006°03'510.8
2018-May-24 04:30N 53°23' W 005°56'611.4
2018-May-24 04:00N 53°26' W 005°47'611.1
2018-May-24 03:27N 53°29' W 005°39'611.1
2018-May-24 02:56N 53°34' W 005°35'511.4
2018-May-24 02:29N 53°39' W 005°32'511.5
2018-May-24 02:00N 53°44' W 005°28'611.6
2018-May-24 01:30N 53°49' W 005°24'611.7
2018-May-24 01:00N 53°55' W 005°21'612.0
2018-May-24 00:30N 54°00' W 005°17'611.5
2018-May-24 00:00N 54°06' W 005°13'612.3
2018-May-23 23:30N 54°11' W 005°09'612.5
2018-May-23 23:00N 54°17' W 005°05'713.7
2018-May-23 22:30N 54°23' W 005°01'611.7
2018-May-23 22:00N 54°29' W 005°04'612.0
2018-May-23 21:30N 54°33' W 005°11'612.5
2018-May-23 21:00N 54°38' W 005°18'612.5
2018-May-23 20:30N 54°42' W 005°27'611.5
2018-May-23 20:00N 54°42' W 005°37'611.3
2018-May-23 19:30N 54°42' W 005°46'610.8
2018-May-23 19:00N 54°38' W 005°53'1 1.6
2018-May-23 18:30N 54°37' W 005°54'0 0.0
2018-May-23 18:00N 54°37' W 005°54'0 0.0
2018-May-23 17:27N 54°37' W 005°54'0 0.0
2018-May-23 17:00N 54°37' W 005°54'0 0.0
2018-May-23 16:30N 54°37' W 005°54'0 0.0
2018-May-23 16:00N 54°37' W 005°54'0 0.0
2018-May-23 15:30N 54°37' W 005°54'0 0.0
2018-May-23 15:00N 54°37' W 005°54'0 0.0
2018-May-23 14:30N 54°37' W 005°54'0 0.0
2018-May-23 13:57N 54°37' W 005°54'0 0.0
2018-May-23 13:30N 54°37' W 005°54'0 0.0
2018-May-23 13:00N 54°37' W 005°54'0 0.0
2018-May-23 12:30N 54°37' W 005°54'0 0.0
2018-May-23 12:00N 54°37' W 005°54'0 0.0
2018-May-23 11:30N 54°37' W 005°54'0 0.0
2018-May-23 11:00N 54°37' W 005°54'0 0.0
2018-May-23 10:30N 54°37' W 005°54'0 0.0
2018-May-23 10:00N 54°37' W 005°54'0 0.0
2018-May-23 09:30N 54°37' W 005°54'0 0.0
2018-May-23 09:00N 54°37' W 005°54'0 0.1
2018-May-23 08:27N 54°37' W 005°54'1 1.3
2018-May-23 07:56N 54°38' W 005°53'4 9.0
2018-May-23 07:30N 54°41' W 005°49'611.9
2018-May-23 07:01N 54°43' W 005°40'816.4
2018-May-23 06:31N 54°52' W 005°38'815.6
2018-May-23 06:01N 54°59' W 005°40'2136.1
2018-May-23 06:00N 55°00' W 005°36'1316.0 060 / 111026.010.8 10.4 8.510.5
2018-May-23 05:12N 55°09' W 005°51'315.3
2018-May-23 05:01N 55°12' W 005°54'6333.8
2018-May-23 05:00N 55°06' W 005°54'1326.5 090 / 221026.010.8 9.5 7.610.8
2018-May-23 04:30N 55°18' W 006°03'815.5
2018-May-23 04:01N 55°22' W 006°14'4244.5
2018-May-23 04:00N 55°18' W 006°12'1123.1 140 / 131026.010.8 9.5 7.611.0
2018-May-23 03:31N 55°27' W 006°23'815.7
2018-May-23 03:00N 55°34' W 006°30'917.4
2018-May-23 02:31N 55°42' W 006°38'1020.2
2018-May-23 02:01N 55°50' W 006°46'1019.2
2018-May-23 01:29N 55°59' W 006°55'43322.2
2018-May-22 06:00N 57°42' E 005°54'1919.1 100 / 161026.027.0 10.8 5.110.8
2018-May-22 05:00N 58°00' E 005°42'1919.1 060 / 201027.010.8 9.7 5.510.3
2018-May-22 04:00N 58°18' E 005°30'341469.0 070 / 141027.010.8 7.6 4.710.5
2018-May-22 03:16N 58°30' W 005°20'3301210.0
2018-May-22 03:00N 58°30' E 005°12'28085.8 070 / 101027.010.8 7.6 4.010.4
2018-May-21 23:44N 58°43' W 003°44'717.8
2018-May-21 23:20N 58°43' W 003°31'720.4
2018-May-21 23:00N 58°44' W 003°18'1121.0
2018-May-21 22:30N 58°43' W 002°58'1121.0
2018-May-21 22:00N 58°42' W 002°37'8320.6
2018-May-21 18:00N 58°30' E 000°00'1716.8 220 / 151017.0 0.0 8.9 8.111.6
2018-May-21 17:00N 58°24' E 000°30'843.0 190 / 221017.0 0.0 9.2 8.011.8
2018-May-21 16:48N 58°29' E 000°43'618.5
2018-May-21 16:30N 58°27' E 000°53'714.7
2018-May-21 16:00N 58°24' E 001°06'449.1 180 / 161018.010.8 11.4 9.011.8
2018-May-21 15:55N 58°25' E 001°14'818.7
2018-May-21 15:30N 58°23' E 001°28'917.3
2018-May-21 15:00N 58°18' E 001°42'31263.9 170 / 201018.010.8 12.5 9.111.8
2018-May-21 14:59N 58°20' E 001°45'1019.0
2018-May-21 14:29N 58°18' E 002°04'1019.8
2018-May-21 14:00N 58°12' E 002°18'4223.0 170 / 221019.010.8 12.6 8.911.6
2018-May-21 13:58N 58°16' E 002°21'918.9
2018-May-21 13:29N 58°14' E 002°38'918.9
2018-May-21 13:00N 58°12' E 002°56'919.0
2018-May-21 12:30N 58°10' E 003°13'918.8
2018-May-21 12:00N 58°08' E 003°30'1019.1
2018-May-21 11:30N 58°06' E 003°48'917.5
2018-May-21 11:00N 58°00' E 004°00'51409.8 140 / 191021.010.8 15.913.011.9
2018-May-21 10:59N 58°04' E 004°06'714.7
2018-May-21 10:30N 58°03' E 004°19'1019.2
2018-May-21 09:59N 58°01' E 004°38'1119.0
2018-May-21 09:26N 57°59' E 004°57'819.3
2018-May-21 09:00N 57°57' E 005°13'1219.4
2018-May-21 08:24N 57°55' E 005°34'819.3
2018-May-21 07:59N 57°53' E 005°49'919.4
2018-May-21 07:30N 57°52' E 006°06'1119.7
2018-May-21 06:58N 57°49' E 006°26'919.5
2018-May-21 06:30N 57°48' E 006°42'1019.8
2018-May-21 06:00N 57°46' E 007°00'5361.4
2018-May-21 06:00N 57°42' E 007°06'815.5 120 / 81026.010.8 14.311.413.0
2018-May-21 05:30N 57°45' E 007°19'1019.8
2018-May-21 05:00N 57°45' E 007°38'333213.4
2018-May-21 05:00N 57°42' E 006°36'4388.3 150 / 71026.010.8 13.010.013.3
2018-May-21 04:30N 57°45' E 007°56'917.4
2018-May-21 04:00N 57°42' E 008°12'734.2 190 / 161026.010.8 13.911.213.3
2018-May-21 03:47N 57°46' E 008°23'619.9
2018-May-21 03:30N 57°46' E 008°34'54106.8
2018-May-21 03:00N 57°42' E 006°54'69219.7 170 / 201026.010.8 13.610.212.5
2018-May-21 02:41N 57°47' E 009°03'319.1
2018-May-21 02:30N 57°48' E 009°09'918.8
2018-May-21 02:01N 57°48' E 009°27'919.0
2018-May-21 01:31N 57°49' E 009°45'1019.4
2018-May-21 01:01N 57°49' E 010°03'1019.5
2018-May-21 00:31N 57°50' E 010°21'1019.5
2018-May-21 00:00N 57°50' E 010°39'918.6
2018-May-20 23:31N 57°45' E 010°54'1019.6
2018-May-20 23:01N 57°38' E 011°07'1019.2
2018-May-20 22:31N 57°32' E 011°20'918.9
2018-May-20 22:01N 57°23' E 011°28'1019.1
2018-May-20 21:31N 57°14' E 011°35'918.6
2018-May-20 21:01N 57°06' E 011°40'918.7
2018-May-20 20:30N 56°57' E 011°46'1019.1
2018-May-20 20:00N 56°48' E 011°52'918.9
2018-May-20 19:31N 56°39' E 011°57'918.5
2018-May-20 19:01N 56°30' E 012°00'6340.7
2018-May-20 19:00N 56°24' E 012°00'4 8.5 090 / 61027.010.8 18.412.615.5
2018-May-20 18:31N 56°21' E 012°04'917.9
2018-May-20 18:00N 56°14' E 012°16'918.9
2018-May-20 17:30N 56°09' E 012°29'918.7
2018-May-20 17:01N 56°02' E 012°40'917.5
2018-May-20 16:30N 55°53' E 012°44'815.6
2018-May-20 16:00N 55°46' E 012°42'4 8.4
2018-May-20 15:31N 55°42' E 012°37'0 0.3
2018-May-20 14:59N 55°43' E 012°36'0 0.0
2018-May-20 14:29N 55°43' E 012°36'0 0.0
2018-May-20 13:59N 55°43' E 012°36'0 0.0
2018-May-20 13:29N 55°43' E 012°36'0 0.0
2018-May-20 12:59N 55°43' E 012°36'0 0.0
2018-May-20 12:29N 55°43' E 012°36'0 0.0
2018-May-20 11:59N 55°43' E 012°36'0 0.0
2018-May-20 11:29N 55°43' E 012°36'0 0.0
2018-May-20 10:59N 55°43' E 012°36'0 0.0
2018-May-20 10:29N 55°43' E 012°36'0 0.0
2018-May-20 09:59N 55°43' E 012°36'0 0.0
2018-May-20 09:29N 55°43' E 012°36'0 0.0
2018-May-20 08:59N 55°43' E 012°36'0 0.0
2018-May-20 08:29N 55°43' E 012°36'0 0.0
2018-May-20 07:59N 55°43' E 012°36'0 0.0
2018-May-20 07:29N 55°43' E 012°36'0 0.0
2018-May-20 06:59N 55°43' E 012°36'0 0.0
2018-May-20 06:29N 55°43' E 012°36'0 0.0
2018-May-20 05:59N 55°43' E 012°36'0 0.0
2018-May-20 05:29N 55°43' E 012°36'0 0.0
2018-May-20 04:59N 55°43' E 012°36'0 0.2
2018-May-20 04:30N 55°43' E 012°36'3 5.5
2018-May-20 04:00N 55°44' E 012°40'611.8
2018-May-20 03:30N 55°50' E 012°42'816.0
2018-May-20 03:01N 55°58' E 012°41'815.1
2018-May-20 02:30N 56°05' E 012°35'714.5
2018-May-20 02:01N 56°09' E 012°25'814.8
2018-May-20 01:30N 56°12' E 012°12'714.7
2018-May-20 01:01N 56°10' E 011°59'815.0
2018-May-20 00:31N 56°07' E 011°47'714.8
2018-May-20 00:01N 56°07' E 011°33'714.9
2018-May-19 23:30N 56°07' E 011°20'812.8
2018-May-19 22:54N 56°04' E 011°07'3015.7
2018-May-19 21:00N 55°36' E 010°48'913.7 290 / 121025.010.8 15.8 9.915.1
2018-May-19 20:19N 55°28' E 010°56'515.6
2018-May-19 20:00N 55°24' E 011°01'6391.7
2018-May-19 20:00N 55°18' E 011°00'3 6.3 170 / 41025.010.8 16.6 4.915.1
2018-May-19 19:29N 55°16' E 011°05'714.0
2018-May-19 19:01N 55°10' E 011°04'4245.4
2018-May-19 19:00N 55°06' E 011°00'4 8.7 060 / 61024.010.8 18.3 9.114.3
2018-May-19 18:30N 55°02' E 011°02'713.7
2018-May-19 18:01N 54°56' E 010°56'2142.8
2018-May-19 18:00N 54°54' E 010°54'5 9.8 040 / 61024.010.8 20.3 7.313.5
2018-May-19 17:30N 54°50' E 010°51'714.7
2018-May-19 17:01N 54°43' E 010°47'3165.3
2018-May-19 17:00N 54°42' E 010°42'511.1 070 / 31024.010.8 20.7 5.515.4
2018-May-19 16:31N 54°37' E 010°41'714.0
2018-May-19 16:01N 54°33' E 010°31'613.0
2018-May-19 15:30N 54°30' E 010°21'611.5
2018-May-19 15:00N 54°26' E 010°14'510.7
2018-May-19 14:31N 54°21' E 010°10'2 1.0
2018-May-19 12:57N 54°20' E 010°09'0 0.0
2018-May-19 11:42N 54°20' E 010°09'0 0.0
2018-May-19 11:30N 54°20' E 010°09'0 0.0
2018-May-19 09:35N 54°20' E 010°09'0 0.0
2018-May-19 09:17N 54°20' E 010°09'7 1.5
2018-May-19 04:17N 54°26' E 010°14'411.3
2018-May-19 03:54N 54°30' E 010°18'4 9.9
2018-May-19 03:31N 54°32' E 010°24'510.1
2018-May-19 03:00N 54°34' E 010°32'612.2
2018-May-19 02:31N 54°36' E 010°42'611.6
2018-May-19 02:01N 54°36' E 010°52'611.6
2018-May-19 01:30N 54°36' E 011°02'611.8
2018-May-19 01:01N 54°36' E 011°12'611.6
2018-May-19 00:31N 54°33' E 011°21'611.9
2018-May-19 00:00N 54°30' E 011°30'510.9
2018-May-18 23:31N 54°28' E 011°39'510.6
2018-May-18 23:00N 54°26' E 011°47'610.9
2018-May-18 22:30N 54°22' E 011°54'611.9
2018-May-18 22:00N 54°18' E 012°02'10 8.9
2018-May-18 20:55N 54°09' E 012°07'0 0.2
2018-May-18 20:14N 54°09' E 012°07'0 0.0
2018-May-18 19:50N 54°09' E 012°07'3 1.6
2018-May-18 18:00N 54°06' E 012°06'3 2.0 290 / 61019.010.8 15.810.312.5
2018-May-18 16:29N 54°09' E 012°07'0 0.0
2018-May-18 11:38N 54°09' E 012°07'0 0.0
2018-May-18 11:29N 54°09' E 012°07'0 0.0
2018-May-18 06:56N 54°09' E 012°07'0 0.0
2018-May-18 06:05N 54°09' E 012°07'1 0.2
2018-May-18 03:02N 54°10' E 012°06'0 0.4
2018-May-18 03:00N 54°10' E 012°06'2 4.9
2018-May-18 02:30N 54°12' E 012°05'5 9.9
2018-May-18 02:00N 54°16' E 012°01'5 9.1
2018-May-18 01:30N 54°20' E 011°58'611.4
2018-May-18 01:00N 54°25' E 012°02'611.5
2018-May-18 00:30N 54°27' E 012°12'612.2
2018-May-18 00:00N 54°33' E 012°14'713.6
2018-May-17 23:30N 54°38' E 012°22'714.3
2018-May-17 22:59N 54°42' E 012°32'713.8
2018-May-17 22:28N 54°47' E 012°42'613.1
2018-May-17 22:00N 54°49' E 012°52'1118.6
2018-May-17 22:00N 54°48' E 012°54'813.5 290 / 201014.0 5.4 13.411.613.0
2018-May-17 21:26N 54°52' E 013°05'817.9
2018-May-17 21:00N 54°54' E 013°18'112.3 280 / 91015.0 5.4 12.811.212.7
2018-May-17 20:54N 54°55' E 013°17'614.3
2018-May-17 20:29N 54°57' E 013°27'612.1
2018-May-17 20:00N 54°54' E 013°36'1818.6 160 / 131014.0 5.4 12.811.011.7
2018-May-17 19:03N 55°04' E 014°01'014.3
2018-May-17 19:00N 55°04' E 014°02'714.3
2018-May-17 18:30N 55°10' E 014°10'3 5.1
2018-May-17 18:00N 55°12' E 014°12'669.3 080 / 71015.010.8 12.3 5.211.8
2018-May-17 17:54N 55°16' E 014°20'614.5
2018-May-17 17:30N 55°21' E 014°26'714.8
2018-May-17 17:00N 55°27' E 014°34'714.4
2018-May-17 16:30N 55°30' E 014°45'714.4
2018-May-17 16:00N 55°34' E 014°56'714.4
2018-May-17 15:30N 55°38' E 015°07'714.0
2018-May-17 15:00N 55°41' E 015°19'714.4
2018-May-17 14:30N 55°43' E 015°31'714.4
2018-May-17 14:00N 55°47' E 015°42'714.5
2018-May-17 13:30N 55°50' E 015°53'714.2
2018-May-17 13:00N 55°54' E 016°03'714.3
2018-May-17 12:30N 55°58' E 016°14'714.6
2018-May-17 12:00N 56°02' E 016°25'714.7
2018-May-17 11:30N 56°06' E 016°36'816.0
2018-May-17 11:00N 56°11' E 016°47'816.7
2018-May-17 10:30N 56°19' E 016°52'816.7
2018-May-17 10:00N 56°27' E 016°58'16216.8
2018-May-17 00:20N 58°52' E 019°14'617.1
2018-May-17 00:00N 58°57' E 019°20'917.4
2018-May-16 23:30N 59°04' E 019°29'917.4
2018-May-16 23:00N 59°11' E 019°37'917.3
2018-May-16 22:30N 59°19' E 019°45'5 9.8
2018-May-16 22:00N 59°24' E 019°48'4349.6 310 / 81014.0 5.4 14.4 8.8 8.9
2018-May-16 21:59N 59°27' E 019°54'816.6
2018-May-16 21:30N 59°35' E 019°58'816.5
2018-May-16 21:00N 59°41' E 019°49'154.2
2018-May-16 21:00N 59°42' E 019°48'815.4 070 / 61013.0 5.4 14.4 8.8 8.9
2018-May-16 20:28N 59°48' E 019°37'716.0
2018-May-16 20:01N 59°46' E 019°23'5307.6
2018-May-16 20:00N 59°42' E 019°18'4 8.4 320 / 141014.0 5.4 14.4 7.410.6
2018-May-16 19:30N 59°44' E 019°11'1122.3
2018-May-16 19:00N 59°36' E 018°54'4172.3 070 / 41014.0 5.4 21.0 7.611.6
2018-May-16 18:58N 59°40' E 018°57'510.5
2018-May-16 18:30N 59°37' E 018°49'612.1
2018-May-16 18:00N 59°34' E 018°39'6855.1
2018-May-16 18:00N 59°30' E 018°30'1 2.4 160 / 51013.0 5.4 28.3 9.112.0
2018-May-16 17:30N 59°31' E 018°31'510.8
2018-May-16 17:01N 59°27' E 018°25'4 8.4
2018-May-16 16:30N 59°23' E 018°27'4 7.1
2018-May-16 16:00N 59°22' E 018°20'510.8
2018-May-16 15:30N 59°20' E 018°10'1 2.7
2018-May-16 14:57N 59°21' E 018°07'0 0.0
2018-May-16 13:57N 59°21' E 018°07'0 0.0
2018-May-16 13:27N 59°21' E 018°07'0 0.0
2018-May-16 12:58N 59°21' E 018°07'0 0.0
2018-May-16 12:30N 59°21' E 018°07'0 0.0
2018-May-16 11:57N 59°21' E 018°07'0 0.0
2018-May-16 11:27N 59°21' E 018°07'0 0.0
2018-May-16 11:00N 59°21' E 018°07'0 0.0
2018-May-16 10:27N 59°21' E 018°07'0 0.0
2018-May-16 09:57N 59°21' E 018°07'0 0.0
2018-May-16 09:27N 59°21' E 018°07'0 0.0
2018-May-16 08:45N 59°21' E 018°07'0 0.0
2018-May-16 08:27N 59°21' E 018°07'0 0.0
2018-May-16 07:57N 59°21' E 018°07'0 0.0
2018-May-16 07:15N 59°21' E 018°07'0 0.0
2018-May-16 06:57N 59°21' E 018°07'0 0.0
2018-May-16 06:27N 59°21' E 018°07'0 0.0
2018-May-16 06:00N 59°21' E 018°07'0 0.0
2018-May-16 05:30N 59°21' E 018°07'1 1.6
2018-May-16 05:00N 59°21' E 018°09'4 8.5
2018-May-16 04:30N 59°22' E 018°16'5 9.9
2018-May-16 04:01N 59°21' E 018°26'5 9.7
2018-May-16 03:30N 59°26' E 018°23'611.3
2018-May-16 03:00N 59°31' E 018°30'5 9.8
2018-May-16 02:30N 59°34' E 018°38'611.7
2018-May-16 02:00N 59°36' E 018°48'510.5
2018-May-16 01:30N 59°40' E 018°56'714.3
2018-May-16 01:00N 59°44' E 019°08'816.2
2018-May-16 00:30N 59°46' E 019°23'714.5
2018-May-16 00:00N 59°49' E 019°36'915.9
2018-May-15 23:26N 59°45' E 019°52'816.9
2018-May-15 22:56N 59°39' E 020°04'2217.0
2018-May-15 21:37N 59°35' E 020°47'217.7
2018-May-15 21:30N 59°34' E 020°51'917.7
2018-May-15 21:00N 59°33' E 021°08'917.7
2018-May-15 20:30N 59°31' E 021°25'917.9
2018-May-15 20:00N 59°29' E 021°43'5349.2
2018-May-15 20:00N 59°24' E 021°42'1019.8 350 / 271015.0 5.4 15.6 7.9 9.9
2018-May-15 19:30N 59°28' E 021°59'714.2
2018-May-15 19:00N 59°24' E 022°12'1125.2 350 / 221015.0 5.4 15.6 7.1 9.9
2018-May-15 18:33N 59°31' E 022°29'117.3
2018-May-15 18:30N 59°31' E 022°31'917.5
2018-May-15 18:00N 59°34' E 022°47'4282.1
2018-May-15 18:00N 59°30' E 022°42'1225.8 350 / 171016.0 5.4 19.6 7.010.3
2018-May-15 17:30N 59°36' E 023°04'917.9
2018-May-15 17:00N 59°38' E 023°21'3188.9
2018-May-15 17:00N 59°36' E 023°18'1122.4 010 / 81016.0 5.4 19.6 8.610.3
2018-May-15 16:30N 59°41' E 023°38'917.7
2018-May-15 16:00N 59°43' E 023°54'917.6
2018-May-15 15:30N 59°46' E 024°11'918.8
2018-May-15 15:01N 59°48' E 024°29'917.7
2018-May-15 14:30N 59°54' E 024°42'917.7
2018-May-15 14:00N 60°00' E 024°55'713.9
2018-May-15 13:31N 60°07' E 024°54'2 4.4
2018-May-15 13:00N 60°09' E 024°55'0 0.0
2018-May-15 12:30N 60°09' E 024°55'0 0.0
2018-May-15 12:00N 60°09' E 024°55'0 0.0
2018-May-15 11:30N 60°09' E 024°55'0 0.0
2018-May-15 11:00N 60°09' E 024°55'0 0.0
2018-May-15 10:30N 60°09' E 024°55'0 0.0
2018-May-15 10:00N 60°09' E 024°55'0 0.0
2018-May-15 09:30N 60°09' E 024°55'0 0.0
2018-May-15 09:00N 60°09' E 024°55'0 0.0
2018-May-15 08:30N 60°09' E 024°55'0 0.0
2018-May-15 08:00N 60°09' E 024°55'0 0.0
2018-May-15 07:30N 60°09' E 024°55'0 0.0
2018-May-15 07:00N 60°09' E 024°55'0 0.0
2018-May-15 06:27N 60°09' E 024°55'0 0.0
2018-May-15 06:00N 60°09' E 024°55'0 0.0
2018-May-15 05:30N 60°09' E 024°55'0 0.0
2018-May-15 05:00N 60°09' E 024°55'0 0.0
2018-May-15 04:30N 60°09' E 024°55'0 0.0
2018-May-15 04:00N 60°09' E 024°55'0 0.0
2018-May-15 03:30N 60°09' E 024°55'0 0.8
2018-May-15 03:01N 60°09' E 024°55'4 7.2
2018-May-15 02:31N 60°05' E 024°54'714.8
2018-May-15 02:00N 59°59' E 025°00'918.9
2018-May-15 01:30N 59°55' E 025°17'1019.1
2018-May-15 01:00N 59°54' E 025°36'1019.2
2018-May-15 00:30N 59°57' E 025°55'1119.4
2018-May-14 23:57N 59°59' E 026°16'919.5
2018-May-14 23:30N 60°01' E 026°33'1019.3
2018-May-14 22:58N 60°00' E 026°53'918.3
2018-May-14 22:30N 60°02' E 027°10'1019.4
2018-May-14 22:00N 60°07' E 027°27'1019.4
2018-May-14 21:30N 60°12' E 027°43'1019.0
2018-May-14 21:00N 60°10' E 028°02'4310.6
2018-May-14 21:00N 60°06' E 028°00'1020.4 300 / 31021.0 5.4 20.5 8.810.1
2018-May-14 20:30N 60°07' E 028°20'918.5
2018-May-14 20:00N 60°03' E 028°37'4269.8
2018-May-14 20:00N 60°00' E 028°42'1118.9 030 / 71021.0 5.4 22.5 4.010.1
2018-May-14 19:23N 60°02' E 029°04'718.1
2018-May-14 19:00N 60°00' E 029°18'287.6 150 / 21021.0 5.4 22.0 7.410.1
2018-May-14 18:58N 60°02' E 029°21'4 7.8
2018-May-14 18:30N 60°02' E 029°29'1020.0
2018-May-14 18:00N 59°54' E 029°42'6723.1 080 / 71021.0 5.4 27.0 9.812.6
2018-May-14 17:59N 59°60' E 029°41'4 8.0
2018-May-14 17:30N 59°58' E 029°48'510.5
2018-May-14 17:00N 59°56' E 029°57'2190.7
2018-May-14 17:00N 59°54' E 029°54'714.3 080 / 121021.0 5.4 29.810.412.8
2018-May-14 16:30N 59°57' E 030°07'2 4.7
2018-May-14 16:00N 59°57' E 030°12'0 0.0
2018-May-14 15:30N 59°57' E 030°12'0 0.0
2018-May-14 15:00N 59°57' E 030°12'0 0.0
2018-May-14 14:28N 59°57' E 030°12'0 0.0
2018-May-14 14:00N 59°57' E 030°12'0 0.0
2018-May-14 13:28N 59°57' E 030°12'0 0.0
2018-May-14 12:58N 59°57' E 030°12'0 0.0
2018-May-14 12:28N 59°57' E 030°12'0 0.0
2018-May-14 11:54N 59°57' E 030°12'0 0.0
2018-May-14 11:28N 59°57' E 030°12'0 0.0
2018-May-14 10:58N 59°57' E 030°12'0 0.0
2018-May-14 10:30N 59°57' E 030°12'0 0.0
2018-May-14 10:00N 59°57' E 030°12'0 0.0
2018-May-14 09:30N 59°57' E 030°12'0 0.0
2018-May-14 08:58N 59°57' E 030°12'0 0.0
2018-May-14 08:30N 59°57' E 030°12'0 0.0
2018-May-14 08:00N 59°57' E 030°12'0 0.0
2018-May-14 07:30N 59°57' E 030°12'0 0.0
2018-May-14 07:00N 59°57' E 030°12'0 0.0
2018-May-14 06:28N 59°57' E 030°12'  

Dump ship's entire track history